This is the latest recevied weather packets stored in our database for station/object K8JCL-13. If no packets are shown the sender has not sent any weather packets the latest 10 day(s).
| Time | Temp. | Humidity | Pressure | Rain* | Wind** | Luminosity | Snow |
|---|---|---|---|---|---|---|---|
| 1777042687 | 26.11° C | 55% | 1009.9 hPa | 0 mm | - | 465 W/m² | - |
| 1777042382 | 25.56° C | 56% | 1010.2 hPa | 0 mm | - | 489 W/m² | - |
| 1777042077 | 24.44° C | 62% | 1010.3 hPa | 0 mm | - | 459 W/m² | - |
| 1777041775 | 25° C | 55% | 1010.2 hPa | 0 mm | - | 424 W/m² | - |
| 1777041471 | 25° C | 58% | 1010.2 hPa | 0 mm | - | 440 W/m² | - |
| 1777041168 | 25° C | 57% | 1010.3 hPa | 0 mm | - | 434 W/m² | - |
| 1777040864 | 24.44° C | 56% | 1010.2 hPa | 0 mm | - | 421 W/m² | - |
| 1777040564 | 24.44° C | 58% | 1010.2 hPa | 0 mm | - | 411 W/m² | - |
| 1777040259 | 24.44° C | 59% | 1010.4 hPa | 0 mm | - | 395 W/m² | - |
| 1777039955 | 23.89° C | 59% | 1010.3 hPa | 0 mm | - | 375 W/m² | - |
| 1777039651 | 23.89° C | 57% | 1010.2 hPa | 0 mm | - | 356 W/m² | - |
| 1777039346 | 23.89° C | 59% | 1010.1 hPa | 0 mm | - | 345 W/m² | - |
| 1777039041 | 23.33° C | 60% | 1010.3 hPa | 0 mm | - | 351 W/m² | - |
| 1777038737 | 23.33° C | 59% | 1010.1 hPa | 0 mm | - | 334 W/m² | - |
| 1777038433 | 23.33° C | 59% | 1010.1 hPa | 0 mm | - | 329 W/m² | - |
| 1777038127 | 22.78° C | 61% | 1010.2 hPa | 0 mm | - | 313 W/m² | - |
| 1777037823 | 22.78° C | 61% | 1010.1 hPa | 0 mm | - | 297 W/m² | - |
| 1777037519 | 22.78° C | 59% | 1010.3 hPa | 0 mm | - | 278 W/m² | - |
| 1777037216 | 22.22° C | 62% | 1010.4 hPa | 0 mm | - | 258 W/m² | - |
| 1777036913 | 22.22° C | 63% | 1010.5 hPa | 0 mm | - | 247 W/m² | - |
| 1777036610 | 21.67° C | 63% | 1010.5 hPa | 0 mm | - | 235 W/m² | - |
| 1777036310 | 21.11° C | 62% | 1010.4 hPa | 0 mm | - | 215 W/m² | - |
| 1777036007 | 21.67° C | 63% | 1010.3 hPa | 0 mm | - | 220 W/m² | - |
| 1777035706 | 21.11° C | 64% | 1010.6 hPa | 0 mm | - | 205 W/m² | - |
| 1777035402 | 20.56° C | 64% | 1010.7 hPa | 0 mm | - | 191 W/m² | - |
* Rain latest hour (hover to see other rain measurements)
** Current wind speed in m/s (hover to see current wind gust speed)